createdAt,value
2019-01-20T00:03:26.127Z,32.97
2019-01-20T00:06:17.446Z,35.23
2019-01-20T00:09:11.499Z,34.27
2019-01-20T00:12:41.534Z,36.40
2019-01-20T00:19:08.825Z,38.27
2019-01-20T00:21:59.640Z,34.83
2019-01-20T00:25:09.726Z,31.90
2019-01-20T00:31:12.107Z,35.90
2019-01-20T00:34:13.980Z,33.90
2019-01-20T00:37:04.193Z,35.67
2019-01-20T00:39:55.254Z,32.70
2019-01-20T00:43:05.444Z,33.40
2019-01-20T00:45:56.358Z,34.50
2019-01-20T00:48:47.397Z,36.17
2019-01-20T00:51:38.396Z,37.63
2019-01-20T00:54:29.328Z,36.90
2019-01-20T00:57:20.293Z,39.50
2019-01-20T01:00:32.877Z,36.80
2019-01-20T01:09:51.343Z,35.70
2019-01-20T01:13:21.211Z,32.60
2019-01-20T01:16:12.086Z,36.40
2019-01-20T01:19:21.708Z,34.37
2019-01-20T01:22:12.611Z,37.33
2019-01-20T01:28:20.589Z,40.83
2019-01-20T01:31:13.283Z,38.63
2019-01-20T01:33:57.031Z,39.17
2019-01-20T01:36:48.014Z,41.43
2019-01-20T01:39:38.898Z,40.20
2019-01-20T01:42:32.346Z,39.07
2019-01-20T01:48:40.649Z,43.43
2019-01-20T01:51:32.161Z,42.57
2019-01-20T01:54:23.175Z,43.10
2019-01-20T01:57:14.143Z,42.43
2019-01-20T02:03:22.025Z,46.70
2019-01-20T02:06:12.975Z,48.07
2019-01-20T02:12:15.401Z,48.57
2019-01-20T02:15:26.285Z,45.37
2019-01-20T02:18:17.195Z,46.63
2019-01-20T02:21:09.400Z,48.67
2019-01-20T02:27:44.447Z,49.17
2019-01-20T02:30:25.299Z,49.30
2019-01-20T02:33:09.467Z,51.27
2019-01-20T02:36:00.540Z,47.00
2019-01-20T02:38:52.645Z,51.73
2019-01-20T02:41:44.620Z,48.87
2019-01-20T02:44:36.830Z,48.37
2019-01-20T02:47:27.807Z,47.63
2019-01-20T02:53:48.468Z,42.63
2019-01-20T02:56:39.394Z,55.67
2019-01-20T02:59:30.345Z,50.70
2019-01-20T03:02:21.261Z,53.90
2019-01-20T03:05:52.262Z,54.57
2019-01-20T03:08:44.132Z,54.30
2019-01-20T03:11:35.046Z,53.93
2019-01-20T03:14:25.918Z,55.43
2019-01-20T03:17:56.242Z,59.53
2019-01-20T03:23:59.042Z,51.20
2019-01-20T03:26:49.982Z,53.93
2019-01-20T03:29:59.390Z,51.30
2019-01-20T03:32:26.486Z,50.63
2019-01-20T03:35:56.190Z,88.73
2019-01-20T03:41:44.164Z,71.47
2019-01-20T03:44:35.033Z,65.00
2019-01-20T03:53:59.237Z,62.43
2019-01-20T03:56:50.092Z,75.20
2019-01-20T03:59:40.911Z,54.23
2019-01-20T04:02:50.756Z,72.27
2019-01-20T04:05:41.611Z,64.87
2019-01-20T04:08:32.548Z,68.23
2019-01-20T04:14:53.087Z,45.87
2019-01-20T04:17:44.179Z,49.33
2019-01-20T04:20:35.750Z,56.23
2019-01-20T04:24:05.554Z,59.33
2019-01-20T04:26:57.488Z,61.83
2019-01-20T04:30:29.115Z,62.30
2019-01-20T04:33:12.692Z,59.60
2019-01-20T04:36:04.387Z,50.87
2019-01-20T04:42:12.241Z,60.97
2019-01-20T04:45:22.021Z,68.67
2019-01-20T04:48:12.970Z,63.00
2019-01-20T04:51:04.566Z,59.03
2019-01-20T04:57:06.421Z,51.90
2019-01-20T04:59:57.268Z,54.70
2019-01-20T05:02:48.076Z,50.27
2019-01-20T05:06:17.836Z,47.63
2019-01-20T05:09:09.596Z,44.83
2019-01-20T05:12:00.507Z,47.90
2019-01-20T05:15:05.847Z,49.67
2019-01-20T05:17:44.169Z,51.43
2019-01-20T05:20:35.023Z,46.40
2019-01-20T05:23:40.427Z,53.43
2019-01-20T05:26:18.710Z,42.87
2019-01-20T05:29:10.203Z,47.53
2019-01-20T05:31:54.787Z,57.87
2019-01-20T05:34:46.150Z,58.80
2019-01-20T05:37:37.703Z,47.80
2019-01-20T05:40:28.659Z,43.93
2019-01-20T05:43:19.705Z,46.40
2019-01-20T05:46:10.676Z,44.90
2019-01-20T05:49:02.055Z,45.97
2019-01-20T05:51:52.930Z,48.73
2019-01-20T05:54:44.547Z,44.40
2019-01-20T05:57:35.436Z,40.13
2019-01-20T06:00:28.947Z,49.13
2019-01-20T06:03:20.999Z,40.33
2019-01-20T06:06:04.389Z,37.27
2019-01-20T06:08:55.331Z,41.87
2019-01-20T06:14:56.744Z,42.33
2019-01-20T06:17:47.652Z,42.90
2019-01-20T06:23:49.895Z,42.00
2019-01-20T06:26:40.815Z,41.67
2019-01-20T06:29:31.634Z,52.33
2019-01-20T06:32:22.468Z,45.07
2019-01-20T06:38:30.135Z,40.40
2019-01-20T06:41:21.051Z,48.20
2019-01-20T06:44:11.965Z,46.30
2019-01-20T06:47:02.810Z,44.17
2019-01-20T06:49:53.755Z,42.00
2019-01-20T06:52:44.689Z,43.20
2019-01-20T06:55:35.648Z,40.63
2019-01-20T06:58:27.494Z,42.97
2019-01-20T07:04:48.527Z,39.37
2019-01-20T07:07:39.428Z,44.23
2019-01-20T07:10:30.353Z,41.00
2019-01-20T07:13:21.281Z,43.50
2019-01-20T07:16:12.128Z,41.67
2019-01-20T07:19:03.318Z,43.43
2019-01-20T07:21:54.278Z,44.00
2019-01-20T07:24:45.119Z,45.40
2019-01-20T07:27:35.984Z,40.27
2019-01-20T07:30:26.966Z,39.63
2019-01-20T07:33:18.045Z,39.53
2019-01-20T07:36:10.421Z,40.73
2019-01-20T07:39:40.479Z,40.90
2019-01-20T07:48:58.656Z,44.63
2019-01-20T07:55:19.761Z,38.40
2019-01-20T08:01:40.561Z,43.23
2019-01-20T08:04:31.478Z,39.83
2019-01-20T08:07:14.561Z,38.60
2019-01-20T08:13:24.401Z,34.20
2019-01-20T08:19:31.786Z,34.67
2019-01-20T08:22:22.627Z,34.53
2019-01-20T08:28:30.516Z,32.53
2019-01-20T08:31:21.595Z,36.27
2019-01-20T08:34:12.466Z,32.53
2019-01-20T08:40:00.473Z,34.30
2019-01-20T08:42:51.310Z,33.63
2019-01-20T08:46:19.982Z,38.27
2019-01-20T08:49:10.847Z,38.47
2019-01-20T09:02:17.608Z,31.80
2019-01-20T09:05:02.329Z,30.87
2019-01-20T09:07:53.384Z,32.67
2019-01-20T09:11:04.026Z,33.03
2019-01-20T09:14:14.738Z,34.60
2019-01-20T09:18:00.230Z,33.83
2019-01-20T09:21:18.165Z,32.80
2019-01-20T09:24:50.635Z,33.83
2019-01-20T09:27:42.566Z,34.30
2019-01-20T09:30:34.980Z,37.90
2019-01-20T09:33:24.522Z,37.77
2019-01-20T09:36:51.042Z,32.90
2019-01-20T09:39:42.762Z,34.57
2019-01-20T09:42:47.739Z,35.03
2019-01-20T09:46:07.670Z,35.80
2019-01-20T09:49:01.913Z,34.40
2019-01-20T09:51:52.797Z,34.63
2019-01-20T09:54:43.523Z,36.13
2019-01-20T09:57:34.261Z,34.57
2019-01-20T10:01:04.921Z,35.23
2019-01-20T10:03:55.813Z,36.37
2019-01-20T10:06:39.303Z,37.27
2019-01-20T10:10:09.454Z,38.93
2019-01-20T10:13:00.294Z,34.30
2019-01-20T10:15:52.269Z,35.20
2019-01-20T10:18:43.563Z,34.50
2019-01-20T10:21:48.806Z,40.17
2019-01-20T10:24:46.108Z,37.50
2019-01-20T10:27:36.984Z,40.13
2019-01-20T10:30:46.482Z,38.87
2019-01-20T10:33:37.384Z,40.10
2019-01-20T10:36:28.224Z,37.97
2019-01-20T10:39:19.122Z,38.47
2019-01-20T10:42:11.675Z,38.43
2019-01-20T10:45:41.634Z,42.50
2019-01-20T10:48:34.014Z,36.10
2019-01-20T10:51:24.938Z,39.47
2019-01-20T10:54:15.877Z,38.67
2019-01-20T10:57:45.498Z,41.57
2019-01-20T11:03:49.560Z,36.43
2019-01-20T11:06:33.191Z,36.80
2019-01-20T11:09:25.393Z,38.40
2019-01-20T11:12:16.258Z,38.37
2019-01-20T11:15:46.355Z,36.27
2019-01-20T11:18:37.802Z,35.37
2019-01-20T11:21:48.072Z,34.30
2019-01-20T11:24:39.029Z,33.50
2019-01-20T11:28:09.014Z,33.87
2019-01-20T11:30:59.933Z,37.50
2019-01-20T11:34:29.899Z,38.03
2019-01-20T11:43:30.155Z,36.87
2019-01-20T11:46:21.401Z,35.33
2019-01-20T11:49:51.617Z,35.77
2019-01-20T11:52:42.479Z,38.53
2019-01-20T11:55:33.321Z,38.53
2019-01-20T11:58:24.193Z,36.10
2019-01-20T12:01:15.044Z,37.43
2019-01-20T12:04:05.966Z,34.07
2019-01-20T12:06:49.472Z,35.20
2019-01-20T12:09:40.387Z,36.97
2019-01-20T12:15:42.192Z,38.27
2019-01-20T12:18:33.090Z,36.23
2019-01-20T12:21:24.470Z,38.17
2019-01-20T12:24:35.061Z,38.83
2019-01-20T12:27:44.614Z,36.53
2019-01-20T12:30:38.496Z,40.30
2019-01-20T12:33:11.199Z,39.20
2019-01-20T12:35:44.829Z,38.13
2019-01-20T12:38:37.262Z,40.63
2019-01-20T12:42:07.235Z,41.90
2019-01-20T12:44:58.506Z,38.97
2019-01-20T12:47:49.379Z,37.00
2019-01-20T12:50:40.744Z,37.10
2019-01-20T12:53:31.615Z,36.13
2019-01-20T12:56:23.273Z,38.40
2019-01-20T12:59:33.014Z,39.53
2019-01-20T13:02:23.913Z,40.60
2019-01-20T13:05:35.103Z,36.40
2019-01-20T13:08:26.217Z,37.20
2019-01-20T13:11:56.145Z,33.13
2019-01-20T13:14:47.801Z,35.60
2019-01-20T13:18:17.478Z,39.17
2019-01-20T13:21:08.667Z,34.53
2019-01-20T13:23:59.582Z,35.20
2019-01-20T13:27:29.236Z,34.77
2019-01-20T13:30:22.304Z,38.47
2019-01-20T13:33:25.137Z,39.00
2019-01-20T13:36:44.310Z,38.07
2019-01-20T13:39:35.216Z,34.33
2019-01-20T13:42:26.073Z,40.30
2019-01-20T13:45:17.009Z,37.23
2019-01-20T13:48:08.259Z,38.00
2019-01-20T13:50:59.152Z,40.33
2019-01-20T13:53:50.093Z,41.13
2019-01-20T13:56:40.917Z,35.00
2019-01-20T13:59:31.913Z,33.70
2019-01-20T14:02:22.731Z,36.07
2019-01-20T14:05:13.816Z,39.10
2019-01-20T14:08:04.647Z,43.27
2019-01-20T14:10:55.626Z,41.10
2019-01-20T14:13:47.189Z,36.83
2019-01-20T14:23:00.888Z,39.80
2019-01-20T14:25:51.827Z,38.73
2019-01-20T14:28:49.635Z,41.47
2019-01-20T14:35:29.127Z,39.60
2019-01-20T14:38:59.317Z,40.33
2019-01-20T14:42:29.519Z,39.10
2019-01-20T14:48:42.573Z,97.30
2019-01-20T14:51:52.514Z,53.50
2019-01-20T14:55:22.673Z,52.97
2019-01-20T14:58:33.691Z,37.17
2019-01-20T15:01:24.536Z,45.13
2019-01-20T15:07:30.769Z,39.47
2019-01-20T15:13:51.201Z,40.00
2019-01-20T15:16:54.722Z,39.73
2019-01-20T15:23:42.170Z,43.77
2019-01-20T15:26:33.187Z,69.73
2019-01-20T15:32:47.393Z,39.60
2019-01-20T15:36:17.689Z,45.67
2019-01-20T15:39:29.306Z,38.97
2019-01-20T15:46:16.059Z,38.37
2019-01-20T15:55:34.083Z,41.17
2019-01-20T15:58:26.766Z,44.13
2019-01-20T16:01:17.932Z,44.37
2019-01-20T16:04:09.660Z,45.40
2019-01-20T16:07:00.591Z,45.17
2019-01-20T16:09:51.477Z,45.33
2019-01-20T16:13:21.308Z,40.77
2019-01-20T16:16:13.061Z,43.13
2019-01-20T16:19:04.119Z,63.47
2019-01-20T16:21:55.246Z,43.93
2019-01-20T16:24:58.500Z,45.30
2019-01-20T16:27:38.711Z,60.33
2019-01-20T16:30:32.790Z,57.13
2019-01-20T16:33:16.644Z,46.53
2019-01-20T16:36:07.726Z,42.83
2019-01-20T16:38:58.840Z,53.97
2019-01-20T16:41:49.778Z,43.70
2019-01-20T16:44:40.790Z,45.53
2019-01-20T16:47:32.804Z,49.80
2019-01-20T16:50:24.891Z,54.27
2019-01-20T16:53:15.747Z,112.33
2019-01-20T17:05:41.975Z,53.77
2019-01-20T17:14:43.050Z,63.13
2019-01-20T17:17:23.353Z,48.93
2019-01-20T17:20:14.637Z,53.73
2019-01-20T17:23:24.295Z,76.47
2019-01-20T17:26:15.123Z,61.90
2019-01-20T17:29:18.480Z,66.23
2019-01-20T17:31:50.862Z,57.27
2019-01-20T17:34:42.580Z,67.57
2019-01-20T17:37:33.408Z,64.87
2019-01-20T17:40:26.540Z,66.73
2019-01-20T17:43:17.453Z,61.73
2019-01-20T17:52:54.743Z,59.97
2019-01-20T17:59:16.089Z,56.83
2019-01-20T18:02:07.319Z,56.27
2019-01-20T18:08:15.181Z,52.17
2019-01-20T18:11:06.295Z,49.20
2019-01-20T18:13:57.849Z,51.50
2019-01-20T18:16:48.803Z,51.20
2019-01-20T18:19:39.917Z,59.33
2019-01-20T18:23:09.907Z,52.40
2019-01-20T18:32:26.078Z,51.87
2019-01-20T18:38:33.233Z,56.67
2019-01-20T18:42:02.911Z,56.97
2019-01-20T18:51:26.032Z,55.90
2019-01-20T18:54:17.173Z,56.97
2019-01-20T18:57:08.507Z,58.50
2019-01-20T19:00:30.716Z,61.00
2019-01-20T19:03:11.588Z,58.30
2019-01-20T19:06:02.474Z,55.00
2019-01-20T19:08:53.348Z,57.60
2019-01-20T19:11:44.362Z,55.53
2019-01-20T19:14:35.245Z,55.53
2019-01-20T19:17:27.388Z,59.70
2019-01-20T19:20:59.014Z,63.83
2019-01-20T19:23:50.200Z,66.90
2019-01-20T19:26:41.477Z,69.73
2019-01-20T19:32:59.006Z,67.73
2019-01-20T19:39:50.566Z,70.50
2019-01-20T19:42:38.050Z,70.97
2019-01-20T19:46:07.939Z,70.43
2019-01-20T19:52:29.791Z,60.63
2019-01-20T19:55:40.755Z,61.73
2019-01-20T19:58:50.208Z,56.17
2019-01-20T20:01:41.093Z,57.47
2019-01-20T20:08:02.210Z,56.33
2019-01-20T20:17:53.940Z,66.53
2019-01-20T20:23:22.360Z,60.43
2019-01-20T20:26:52.140Z,55.07
2019-01-20T20:29:44.989Z,57.07
2019-01-20T20:32:29.054Z,61.43
2019-01-20T20:35:19.969Z,109.17
2019-01-20T20:44:24.898Z,75.23
2019-01-20T20:47:16.349Z,62.50
2019-01-20T20:50:09.269Z,71.60
2019-01-20T20:53:00.146Z,70.50
2019-01-20T20:55:51.082Z,68.13
2019-01-20T20:58:57.859Z,60.70
2019-01-20T21:05:05.227Z,68.60
2019-01-20T21:07:56.806Z,76.93
2019-01-20T21:11:26.768Z,74.03
2019-01-20T21:14:17.751Z,63.47
2019-01-20T21:17:08.635Z,66.57
2019-01-20T21:19:59.601Z,109.70
2019-01-20T21:23:21.426Z,68.43
2019-01-20T21:29:18.984Z,73.13
2019-01-20T21:32:02.555Z,72.63
2019-01-20T21:35:32.985Z,71.43
2019-01-20T21:38:23.819Z,68.90
2019-01-20T21:41:15.992Z,67.00
2019-01-20T21:44:08.007Z,69.50
2019-01-20T21:51:09.589Z,67.67
2019-01-20T21:54:01.859Z,58.67
2019-01-20T21:56:52.750Z,57.30
2019-01-20T21:59:43.743Z,63.00
2019-01-20T22:02:34.673Z,70.77
2019-01-20T22:05:26.525Z,63.70
2019-01-20T22:08:17.412Z,67.20
2019-01-20T22:11:08.384Z,108.40
2019-01-20T22:13:59.278Z,59.50
2019-01-20T22:16:52.987Z,58.47
2019-01-20T22:19:25.241Z,84.87
2019-01-20T22:23:10.105Z,66.30
2019-01-20T22:26:08.623Z,63.57
2019-01-20T22:29:25.608Z,65.83
2019-01-20T22:32:10.542Z,65.13
2019-01-20T22:35:01.469Z,59.73
2019-01-20T22:37:52.560Z,61.57
2019-01-20T22:40:43.515Z,61.93
2019-01-20T22:43:34.440Z,65.43
2019-01-20T22:47:04.396Z,61.33
2019-01-20T22:49:55.699Z,63.97
2019-01-20T22:52:46.758Z,60.30
2019-01-20T22:55:37.905Z,56.93
2019-01-20T22:58:28.838Z,53.37
2019-01-20T23:01:22.792Z,55.13
2019-01-20T23:04:28.050Z,59.70
2019-01-20T23:07:00.300Z,55.17
2019-01-20T23:10:30.081Z,49.60
2019-01-20T23:19:47.319Z,51.70
2019-01-20T23:22:47.016Z,61.60
2019-01-20T23:28:49.020Z,53.97
2019-01-20T23:31:40.025Z,58.60
2019-01-20T23:34:30.926Z,58.50
2019-01-20T23:37:44.694Z,57.13
2019-01-20T23:47:22.603Z,59.63
2019-01-20T23:50:28.523Z,61.93
2019-01-20T23:53:07.814Z,61.50
2019-01-20T23:55:58.773Z,50.40
2019-01-20T23:58:49.709Z,54.97
